createdAt,value
2018-12-14T00:00:20.569Z,1.04
2018-12-14T00:03:23.889Z,1.08
2018-12-14T00:06:27.224Z,1.24
2018-12-14T00:09:30.440Z,1.32
2018-12-14T00:12:33.959Z,1.30
2018-12-14T00:15:37.322Z,1.05
2018-12-14T00:18:40.541Z,1.02
2018-12-14T00:21:43.957Z,1.01
2018-12-14T00:24:47.319Z,0.93
2018-12-14T00:27:50.982Z,0.81
2018-12-14T00:30:54.236Z,0.85
2018-12-14T00:33:57.496Z,0.77
2018-12-14T00:37:00.762Z,0.93
2018-12-14T00:40:04.722Z,0.98
2018-12-14T00:43:08.019Z,0.98
2018-12-14T00:46:11.316Z,1.00
2018-12-14T00:49:14.524Z,1.14
2018-12-14T00:52:17.810Z,1.08
2018-12-14T00:55:21.048Z,1.08
2018-12-14T00:58:24.364Z,1.23
2018-12-14T01:01:27.689Z,1.42
2018-12-14T01:04:30.924Z,1.60
2018-12-14T01:07:34.157Z,1.82
2018-12-14T01:10:37.496Z,1.89
2018-12-14T01:13:40.726Z,1.73
2018-12-14T01:16:43.972Z,1.20
2018-12-14T01:19:47.276Z,1.05
2018-12-14T01:22:50.481Z,1.05
2018-12-14T01:25:53.942Z,1.05
2018-12-14T01:28:57.270Z,1.11
2018-12-14T01:32:00.483Z,1.05
2018-12-14T01:35:03.975Z,0.88
2018-12-14T01:38:07.266Z,0.90
2018-12-14T01:41:10.502Z,0.90
2018-12-14T01:44:13.756Z,0.86
2018-12-14T01:47:17.066Z,1.02
2018-12-14T01:50:20.572Z,1.01
2018-12-14T01:53:23.904Z,1.20
2018-12-14T01:56:27.151Z,1.20
2018-12-14T01:59:30.364Z,1.40
2018-12-14T02:02:33.592Z,1.19
2018-12-14T02:05:36.835Z,1.21
2018-12-14T02:08:40.045Z,1.09
2018-12-14T02:11:43.330Z,1.05
2018-12-14T02:14:46.800Z,1.15
2018-12-14T02:17:50.022Z,1.33
2018-12-14T02:20:53.326Z,1.32
2018-12-14T02:23:56.582Z,1.35
2018-12-14T02:26:59.918Z,1.50
2018-12-14T02:30:16.823Z,1.62
2018-12-14T02:33:20.165Z,1.53
2018-12-14T02:36:23.480Z,1.48
2018-12-14T02:39:26.726Z,1.43
2018-12-14T02:42:30.125Z,1.31
2018-12-14T02:45:33.424Z,1.24
2018-12-14T02:48:36.654Z,1.09
2018-12-14T02:51:39.892Z,1.07
2018-12-14T02:54:43.245Z,1.08
2018-12-14T02:57:46.590Z,1.24
2018-12-14T03:00:50.034Z,1.12
2018-12-14T03:03:53.304Z,0.99
2018-12-14T03:06:56.532Z,1.12
2018-12-14T03:09:59.900Z,1.08
2018-12-14T03:13:03.112Z,1.23
2018-12-14T03:16:06.425Z,1.05
2018-12-14T03:19:09.677Z,1.14
2018-12-14T03:22:14.304Z,0.93
2018-12-14T03:25:17.532Z,1.05
2018-12-14T03:28:20.808Z,0.92
2018-12-14T03:31:24.110Z,0.96
2018-12-14T03:34:27.492Z,0.88
2018-12-14T03:37:30.696Z,0.98
2018-12-14T03:40:33.958Z,1.08
2018-12-14T03:43:37.436Z,0.82
2018-12-14T03:46:41.001Z,0.88
2018-12-14T03:49:44.214Z,0.84
2018-12-14T03:52:47.890Z,1.02
2018-12-14T03:55:51.101Z,0.98
2018-12-14T03:58:54.503Z,0.70
2018-12-14T04:01:57.897Z,0.64
2018-12-14T04:05:01.115Z,0.51
2018-12-14T04:08:04.388Z,0.62
2018-12-14T04:11:07.604Z,0.55
2018-12-14T04:14:10.985Z,0.49
2018-12-14T04:17:14.234Z,0.52
2018-12-14T04:20:17.513Z,0.52
2018-12-14T04:23:20.746Z,0.67
2018-12-14T04:26:23.979Z,0.71
2018-12-14T04:29:27.263Z,0.58
2018-12-14T04:32:30.486Z,0.66
2018-12-14T04:35:33.743Z,0.68
2018-12-14T04:38:37.055Z,0.88
2018-12-14T04:41:40.453Z,0.84
2018-12-14T04:44:43.661Z,0.68
2018-12-14T04:47:46.947Z,0.88
2018-12-14T04:50:50.162Z,0.72
2018-12-14T04:53:53.437Z,0.50
2018-12-14T04:56:56.834Z,0.47
2018-12-14T05:00:00.179Z,0.64
2018-12-14T05:03:03.526Z,0.73
2018-12-14T05:06:06.904Z,0.74
2018-12-14T05:09:10.212Z,0.66
2018-12-14T05:12:13.529Z,0.83
2018-12-14T05:15:16.931Z,0.72
2018-12-14T05:18:20.140Z,0.56
2018-12-14T05:21:23.522Z,0.51
2018-12-14T05:24:26.817Z,0.40
2018-12-14T05:27:30.060Z,0.39
2018-12-14T05:30:33.304Z,0.34
2018-12-14T05:33:36.913Z,0.32
2018-12-14T05:36:40.215Z,0.45
2018-12-14T05:39:43.536Z,0.68
2018-12-14T05:42:46.807Z,0.54
2018-12-14T05:45:50.098Z,0.72
2018-12-14T05:48:53.384Z,0.81
2018-12-14T05:51:57.573Z,0.65
2018-12-14T05:55:00.936Z,0.62
2018-12-14T05:58:04.221Z,0.49
2018-12-14T06:01:07.472Z,0.37
2018-12-14T06:04:11.011Z,0.31
2018-12-14T06:07:14.308Z,0.35
2018-12-14T06:10:17.559Z,0.51
2018-12-14T06:13:20.893Z,0.64
2018-12-14T06:16:24.133Z,0.68
2018-12-14T06:19:27.602Z,0.44
2018-12-14T06:22:30.896Z,0.50
2018-12-14T06:25:34.166Z,0.56
2018-12-14T06:28:37.388Z,0.48
2018-12-14T06:31:40.684Z,0.45
2018-12-14T06:34:43.983Z,0.41
2018-12-14T06:37:47.212Z,0.40
2018-12-14T06:40:50.476Z,0.48
2018-12-14T06:43:53.762Z,0.45
2018-12-14T06:46:57.067Z,0.36
2018-12-14T06:50:00.290Z,0.33
2018-12-14T06:53:03.881Z,0.34
2018-12-14T06:56:07.217Z,0.37
2018-12-14T06:59:10.468Z,0.27
2018-12-14T07:02:13.770Z,0.33
2018-12-14T07:05:17.018Z,0.37
2018-12-14T07:08:20.357Z,0.38
2018-12-14T07:11:23.650Z,0.42
2018-12-14T07:14:26.948Z,0.50
2018-12-14T07:17:30.165Z,0.41
2018-12-14T07:20:33.540Z,0.32
2018-12-14T07:23:36.758Z,0.39
2018-12-14T07:26:40.037Z,0.34
2018-12-14T07:29:43.370Z,0.37
2018-12-14T07:32:46.592Z,0.34
2018-12-14T07:35:49.812Z,0.33
2018-12-14T07:38:53.119Z,0.42
2018-12-14T07:41:56.418Z,0.40
2018-12-14T07:44:59.744Z,0.38
2018-12-14T07:48:03.054Z,0.37
2018-12-14T07:51:06.308Z,0.45
2018-12-14T07:54:09.607Z,0.54
2018-12-14T07:57:12.902Z,0.45
2018-12-14T08:00:16.199Z,0.49
2018-12-14T08:03:19.497Z,0.52
2018-12-14T08:06:22.765Z,0.52
2018-12-14T08:09:26.050Z,0.50
2018-12-14T08:12:29.301Z,0.35
2018-12-14T08:15:32.810Z,0.38
2018-12-14T08:18:36.082Z,0.34
2018-12-14T08:21:39.296Z,0.35
2018-12-14T08:24:42.576Z,0.33
2018-12-14T08:27:45.820Z,0.32
2018-12-14T08:30:49.068Z,0.29
2018-12-14T08:33:52.296Z,0.52
2018-12-14T08:36:55.560Z,0.44
2018-12-14T08:39:58.781Z,0.35
2018-12-14T08:43:02.156Z,0.32
2018-12-14T08:46:05.388Z,0.35
2018-12-14T08:49:08.612Z,0.41
2018-12-14T08:52:11.893Z,0.35
2018-12-14T08:55:15.214Z,0.34
2018-12-14T08:58:18.436Z,0.43
2018-12-14T09:01:21.671Z,0.33
2018-12-14T09:04:24.897Z,0.25
2018-12-14T09:07:28.225Z,0.29
2018-12-14T09:10:31.523Z,0.29
2018-12-14T09:13:34.857Z,0.53
2018-12-14T09:16:38.216Z,0.54
2018-12-14T09:19:41.515Z,0.63
2018-12-14T09:22:44.777Z,0.61
2018-12-14T09:25:48.042Z,0.45
2018-12-14T09:28:51.718Z,0.32
2018-12-14T09:31:55.012Z,0.36
2018-12-14T09:34:58.363Z,0.18
2018-12-14T09:38:01.608Z,0.18
2018-12-14T09:41:04.845Z,0.27
2018-12-14T09:44:08.201Z,0.47
2018-12-14T09:47:11.421Z,0.67
2018-12-14T09:50:14.712Z,0.81
2018-12-14T09:53:18.092Z,0.83
2018-12-14T09:56:21.320Z,0.44
2018-12-14T09:59:24.581Z,0.31
2018-12-14T10:02:27.901Z,0.28
2018-12-14T10:05:31.178Z,0.32
2018-12-14T10:08:34.413Z,0.33
2018-12-14T10:11:37.775Z,0.33
2018-12-14T10:14:41.178Z,0.38
2018-12-14T10:17:44.487Z,0.50
2018-12-14T10:20:47.805Z,0.40
2018-12-14T10:23:51.156Z,0.52
2018-12-14T10:26:54.358Z,0.77
2018-12-14T10:29:57.657Z,0.67
2018-12-14T10:33:00.893Z,0.52
2018-12-14T10:36:04.251Z,0.37
2018-12-14T10:39:07.550Z,0.37
2018-12-14T10:42:10.884Z,0.42
2018-12-14T10:45:14.260Z,0.43
2018-12-14T10:48:17.542Z,0.48
2018-12-14T10:51:20.748Z,0.67
2018-12-14T10:54:24.135Z,0.58
2018-12-14T10:57:27.347Z,0.82
2018-12-14T11:00:36.210Z,0.63
2018-12-14T11:03:39.753Z,0.63
2018-12-14T11:06:43.058Z,0.72
2018-12-14T11:09:46.292Z,0.41
2018-12-14T11:12:49.749Z,0.32
2018-12-14T11:15:52.976Z,0.39
2018-12-14T11:18:56.246Z,0.44
2018-12-14T11:21:59.452Z,0.61
2018-12-14T11:25:02.742Z,0.61
2018-12-14T11:28:06.038Z,0.67
2018-12-14T11:31:09.248Z,0.79
2018-12-14T11:34:13.336Z,0.67
2018-12-14T11:37:16.645Z,0.74
2018-12-14T11:40:19.852Z,0.84
2018-12-14T11:43:23.136Z,0.80
2018-12-14T11:46:26.420Z,0.45
2018-12-14T11:49:29.681Z,0.53
2018-12-14T11:52:32.906Z,0.42
2018-12-14T11:55:36.223Z,0.58
2018-12-14T11:58:39.563Z,0.60
2018-12-14T12:01:42.825Z,0.64
2018-12-14T12:04:46.110Z,0.76
2018-12-14T12:07:49.718Z,0.96
2018-12-14T12:10:53.120Z,0.79
2018-12-14T12:13:56.328Z,0.75
2018-12-14T12:16:59.629Z,0.95
2018-12-14T12:20:03.900Z,1.24
2018-12-14T12:23:07.136Z,0.78
2018-12-14T12:26:10.421Z,0.85
2018-12-14T12:29:13.721Z,0.69
2018-12-14T12:32:16.928Z,0.47
2018-12-14T12:35:20.213Z,0.49
2018-12-14T12:38:23.524Z,0.33
2018-12-14T12:41:26.746Z,0.39
2018-12-14T12:44:33.521Z,0.68
2018-12-14T12:47:35.196Z,0.66
2018-12-14T12:50:38.425Z,0.63
2018-12-14T12:53:41.657Z,0.65
2018-12-14T12:56:44.928Z,0.64
2018-12-14T12:59:48.227Z,0.44
2018-12-14T13:02:51.525Z,0.35
2018-12-14T13:05:54.827Z,0.23
2018-12-14T13:08:58.140Z,0.23
2018-12-14T13:12:01.415Z,0.42
2018-12-14T13:15:06.200Z,0.62
2018-12-14T13:18:09.453Z,0.78
2018-12-14T13:21:12.743Z,0.89
2018-12-14T13:24:16.040Z,0.87
2018-12-14T13:27:20.427Z,1.00
2018-12-14T13:30:23.861Z,0.86
2018-12-14T13:33:27.669Z,0.78
2018-12-14T13:36:30.890Z,0.76
2018-12-14T13:39:34.162Z,0.85
2018-12-14T13:42:37.381Z,0.83
2018-12-14T13:45:40.652Z,0.57
2018-12-14T13:48:44.052Z,0.69
2018-12-14T13:51:47.340Z,0.73
2018-12-14T13:54:50.647Z,0.81
2018-12-14T13:57:53.880Z,0.84
2018-12-14T14:00:57.236Z,0.66
2018-12-14T14:04:00.458Z,0.63
2018-12-14T14:07:03.714Z,0.80
2018-12-14T14:10:07.389Z,0.67
2018-12-14T14:13:10.634Z,0.77
2018-12-14T14:16:13.857Z,0.88
2018-12-14T14:19:17.093Z,0.93
2018-12-14T14:22:20.729Z,0.93
2018-12-14T14:25:24.334Z,1.01
2018-12-14T14:28:27.634Z,0.76
2018-12-14T14:31:30.929Z,0.74
2018-12-14T14:34:34.229Z,0.80
2018-12-14T14:37:37.428Z,0.85
2018-12-14T14:40:40.717Z,0.84
2018-12-14T14:43:44.018Z,0.79
2018-12-14T14:46:47.312Z,0.58
2018-12-14T14:49:50.613Z,0.65
2018-12-14T14:52:53.910Z,0.70
2018-12-14T14:55:57.187Z,0.78
2018-12-14T14:59:00.405Z,0.85
2018-12-14T15:02:03.788Z,0.77
2018-12-14T15:05:07.078Z,0.70
2018-12-14T15:08:10.280Z,0.65
2018-12-14T15:11:13.586Z,0.48
2018-12-14T15:14:16.901Z,0.41
2018-12-14T15:17:20.183Z,0.42
2018-12-14T15:20:23.416Z,0.53
2018-12-14T15:23:26.781Z,0.44
2018-12-14T15:26:30.094Z,0.60
2018-12-14T15:29:33.373Z,0.37
2018-12-14T15:32:36.644Z,0.46
2018-12-14T15:35:39.876Z,0.54
2018-12-14T15:38:43.125Z,0.62
2018-12-14T15:41:46.385Z,0.66
2018-12-14T15:44:49.611Z,0.72
2018-12-14T15:47:52.951Z,0.55
2018-12-14T15:50:56.179Z,0.65
2018-12-14T15:53:59.423Z,0.67
2018-12-14T15:57:02.739Z,0.65
2018-12-14T16:00:07.928Z,0.61
2018-12-14T16:03:11.152Z,0.56
2018-12-14T16:06:14.404Z,0.52
2018-12-14T16:09:17.649Z,0.52
2018-12-14T16:12:20.887Z,0.75
2018-12-14T16:15:24.117Z,0.79
2018-12-14T16:18:27.439Z,0.69
2018-12-14T16:21:30.855Z,0.31
2018-12-14T16:24:34.255Z,0.23
2018-12-14T16:27:37.952Z,0.34
2018-12-14T16:30:41.433Z,0.33
2018-12-14T16:33:44.720Z,0.24
2018-12-14T16:36:47.983Z,0.24
2018-12-14T16:39:51.322Z,0.35
2018-12-14T16:42:54.541Z,0.42
2018-12-14T16:45:57.849Z,0.28
2018-12-14T16:49:01.234Z,0.34
2018-12-14T16:52:04.514Z,0.45
2018-12-14T16:55:07.930Z,0.50
2018-12-14T16:58:11.241Z,0.47
2018-12-14T17:01:14.641Z,0.50
2018-12-14T17:04:17.936Z,0.54
2018-12-14T17:07:21.235Z,0.71
2018-12-14T17:10:24.531Z,0.65
2018-12-14T17:13:28.729Z,0.59
2018-12-14T17:16:32.048Z,0.43
2018-12-14T17:19:35.264Z,0.54
2018-12-14T17:22:38.647Z,0.56
2018-12-14T17:25:41.981Z,0.50
2018-12-14T17:28:45.337Z,0.43
2018-12-14T17:31:48.635Z,0.24
2018-12-14T17:34:51.841Z,0.13
2018-12-14T17:37:55.100Z,0.28
2018-12-14T17:40:58.409Z,0.41
2018-12-14T17:44:01.621Z,0.46
2018-12-14T17:47:04.916Z,0.59
2018-12-14T17:50:08.508Z,0.55
2018-12-14T17:53:11.817Z,0.56
2018-12-14T17:56:15.028Z,0.39
2018-12-14T17:59:18.262Z,0.27
2018-12-14T18:02:21.484Z,0.28
2018-12-14T18:05:24.801Z,0.30
2018-12-14T18:08:28.008Z,0.40
2018-12-14T18:11:31.484Z,0.52
2018-12-14T18:14:34.797Z,0.62
2018-12-14T18:17:38.012Z,0.67
2018-12-14T18:20:41.286Z,0.61
2018-12-14T18:23:44.521Z,0.66
2018-12-14T18:26:47.778Z,0.62
2018-12-14T18:29:51.031Z,0.51
2018-12-14T18:32:54.266Z,0.60
2018-12-14T18:35:57.612Z,0.57
2018-12-14T18:39:00.965Z,0.40
2018-12-14T18:42:04.241Z,0.50
2018-12-14T18:45:07.666Z,0.40
2018-12-14T18:48:10.943Z,0.42
2018-12-14T18:51:14.156Z,0.46
2018-12-14T18:54:17.532Z,0.50
2018-12-14T18:57:20.852Z,0.58
2018-12-14T19:00:24.080Z,0.46
2018-12-14T19:03:27.344Z,0.64
2018-12-14T19:06:30.577Z,0.68
2018-12-14T19:09:34.142Z,0.64
2018-12-14T19:12:37.441Z,0.62
2018-12-14T19:15:40.739Z,0.61
2018-12-14T19:18:44.036Z,0.49
2018-12-14T19:21:47.437Z,0.29
2018-12-14T19:24:50.666Z,0.16
2018-12-14T19:27:53.954Z,0.06
2018-12-14T19:30:57.225Z,0.15
2018-12-14T19:34:00.521Z,0.26
2018-12-14T19:37:03.772Z,0.38
2018-12-14T19:40:09.482Z,0.54
2018-12-14T19:43:12.740Z,0.75
2018-12-14T19:46:16.011Z,0.76
2018-12-14T19:49:19.222Z,0.72
2018-12-14T19:52:22.491Z,0.73
2018-12-14T19:55:25.720Z,0.76
2018-12-14T19:58:28.947Z,0.57
2018-12-14T20:01:32.250Z,0.41
2018-12-14T20:04:35.481Z,0.42
2018-12-14T20:07:38.781Z,0.47
2018-12-14T20:10:42.149Z,0.37
2018-12-14T20:13:45.386Z,0.34
2018-12-14T20:16:48.837Z,0.27
2018-12-14T20:19:52.069Z,0.13
2018-12-14T20:22:55.305Z,0.19
2018-12-14T20:25:58.619Z,0.16
2018-12-14T20:29:01.848Z,0.27
2018-12-14T20:32:05.113Z,0.32
2018-12-14T20:35:08.707Z,0.13
2018-12-14T20:38:12.016Z,-0.09
2018-12-14T20:41:15.385Z,-0.08
2018-12-14T20:44:18.748Z,0.11
2018-12-14T20:47:22.118Z,-0.04
2018-12-14T20:50:25.354Z,-0.09
2018-12-14T20:53:28.601Z,-0.15
2018-12-14T20:56:32.000Z,-0.06
2018-12-14T20:59:35.211Z,0.05
2018-12-14T21:02:38.493Z,0.14
2018-12-14T21:05:41.696Z,0.08
2018-12-14T21:08:45.087Z,0.18
2018-12-14T21:11:48.353Z,0.06
2018-12-14T21:14:51.579Z,-0.10
2018-12-14T21:17:54.817Z,0.13
2018-12-14T21:20:58.172Z,0.19
2018-12-14T21:24:01.413Z,0.40
2018-12-14T21:27:04.767Z,0.43
2018-12-14T21:30:10.249Z,0.51
2018-12-14T21:33:13.483Z,0.55
2018-12-14T21:36:16.773Z,0.59
2018-12-14T21:39:20.106Z,0.64
2018-12-14T21:42:23.319Z,0.55
2018-12-14T21:45:26.680Z,0.10
2018-12-14T21:48:29.889Z,0.09
2018-12-14T21:51:33.220Z,0.27
2018-12-14T21:54:36.526Z,0.05
2018-12-14T21:57:40.267Z,0.05
2018-12-14T22:00:43.594Z,0.02
2018-12-14T22:03:46.801Z,0.05
2018-12-14T22:06:50.029Z,0.05
2018-12-14T22:09:53.261Z,0.03
2018-12-14T22:12:56.683Z,0.09
2018-12-14T22:15:59.948Z,0.02
2018-12-14T22:19:03.308Z,-0.10
2018-12-14T22:22:06.675Z,-0.29
2018-12-14T22:25:09.952Z,-0.36
2018-12-14T22:28:13.186Z,-0.35
2018-12-14T22:31:16.451Z,-0.25
2018-12-14T22:34:19.724Z,-0.02
2018-12-14T22:37:22.953Z,0.18
2018-12-14T22:40:26.209Z,0.28
2018-12-14T22:43:29.447Z,0.36
2018-12-14T22:46:32.710Z,0.37
2018-12-14T22:49:35.926Z,0.44
2018-12-14T22:52:39.155Z,0.37
2018-12-14T22:55:42.389Z,0.35
2018-12-14T22:58:45.822Z,0.43
2018-12-14T23:01:49.062Z,0.48
2018-12-14T23:04:52.305Z,0.35
2018-12-14T23:07:55.525Z,0.35
2018-12-14T23:10:58.816Z,0.34
2018-12-14T23:14:02.020Z,0.36
2018-12-14T23:17:05.296Z,0.38
2018-12-14T23:20:08.652Z,0.36
2018-12-14T23:23:11.994Z,0.32
2018-12-14T23:26:15.219Z,0.38
2018-12-14T23:29:18.449Z,0.43
2018-12-14T23:32:21.851Z,0.52
2018-12-14T23:35:25.189Z,0.60
2018-12-14T23:38:28.399Z,0.29
2018-12-14T23:41:31.681Z,0.04
2018-12-14T23:44:34.889Z,0.02
2018-12-14T23:47:38.171Z,-0.16
2018-12-14T23:50:41.417Z,-0.28
2018-12-14T23:53:44.729Z,-0.27
2018-12-14T23:56:47.967Z,-0.01
2018-12-14T23:59:51.292Z,0.08
